Marcus Ryerson

Olheiro-Chefe - Valerenga
6 Nov 2027
Sábado
Processo

Personalidade

Adaptabilidade (15) Ambição (11) Controvérsia (15) Lealdade (11) Pressão (4) Profissionalismo (10) Espírito Esportivo (3) Temperamento (18)

Perfil

Estilo de Treinamento Democrático
Licença Continental C
Determinação 9
Gestão de Pessoas 8
Motivação 5
Disciplina 9
Satisfação no Trabalho
84%
Fadiga
0%
Função Olheiro-Chefe
Salário 72.1K p/s
Contrato 14.03.2028

Desempenho

Comportamento Bom
Eficácia do Treinamento
30%
Desenvolvimento do Jogador
20%
Prevenção de Lesões
40%
Implementação Tática
35%

Eventos Recentes

Participou de uma reunião de recrutamento agora
Participou de uma reunião de recrutamento agora
Participou de uma reunião de recrutamento agora
Recomendou um alvo de transferência agora
Participou de uma reunião de recrutamento agora
Participou de uma reunião de recrutamento agora
Participou de uma reunião de recrutamento agora
Avaliou um jogador agora

Monitorando agora

272
Jogador Clube Status Habilidade Confiança Observado Última observação Último voto
Gideon Manaseh Ikorodu City Ativo 94 / 104 40% 2 04.11.2027 -
Ayden Heaven Sheffield Wednesday Ativo 140 / 145 40% 3 04.11.2027 -
Giovanni Leoni Mansfield Town Ativo 141 / 140 40% 2 04.11.2027 -
Onyeuche Ujunwa Ikorodu City Ativo 84 / 90 40% 3 03.11.2027 -
Olaniyi Saheed Kwara United Ativo 97 / 112 40% 2 03.11.2027 -
Kieran Morgan Queens Park Rangers Ativo 127 / 137 40% 1 03.11.2027 -
Hosea Michael Remo Stars Ativo 95 / 88 40% 6 02.11.2027 -
Trey Nyoni Doncaster Rovers Ativo 135 / 135 40% 2 02.11.2027 -
Sergio Casseres Llaneros Ativo 72 / 102 40% 2 02.11.2027 -
Fillip Jenssen Riise Stabaek Ativo 105 / 116 40% 5 01.11.2027 Observar
Lucas Nicol Mjondalen Ativo 75 / 78 40% 2 01.11.2027 -
Felipe Faúndez O'Higgins Ativo 105 / 88 40% 7 01.11.2027 -
Godwin Oham Warri Wolves Ativo 83 / 102 40% 4 31.10.2027 -
Facundo Balatti Penarol Ativo 94 / 105 40% 3 31.10.2027 -
Jon Esenga IF Elfsborg Ativo 96 / 97 40% 1 31.10.2027 -
Lautaro Dufur Rentistas Ativo 91 / 100 40% 3 29.10.2027 -
Kauã Moraes Cruzeiro Ativo 127 / 138 40% 4 29.10.2027 -
Honest Ahanor Atalanta Ativo 127 / 159 40% 2 29.10.2027 -
Tyson Pearce St. Louis CITY SC Ativo 89 / 85 40% 3 28.10.2027 -
Josh Acheampong Oxford United Ativo 145 / 150 40% 1 28.10.2027 -
Emmanuel Akpan Bendel Insurance Ativo 89 / 88 40% 2 27.10.2027 -
Luis Otávio Toronto FC Ativo 117 / 133 40% 2 27.10.2027 -
Geanfranco Rodríguez Defensor Sporting Ativo 88 / 101 40% 1 27.10.2027 -
Kaick FC Dallas Ativo 96 / 130 40% 4 25.10.2027 -
Josh Nichols Tranmere Rovers Ativo 125 / 111 40% 3 25.10.2027 -
Ayyoub Bouaddi Blackpool Ativo 143 / 149 40% 1 25.10.2027 -
Kenan Busuladžić Malmo FF Ativo 110 / 133 40% 3 24.10.2027 -
Felipe Obradovich Gimnasia La Plata Ativo 99 / 116 40% 1 23.10.2027 -
Joel Ezra Enyimba Ativo 90 / 100 40% 2 21.10.2027 -
Björn Hedlöf Helsingborg Ativo 97 / 90 40% 1 21.10.2027 -
Uche Jaguar Kwara United Ativo 96 / 97 40% 2 20.10.2027 -
Matteo Pérez Vinlöf Dinamo Zagreb Ativo 130 / 133 40% 1 20.10.2027 -
Adrian Skogmar Malmo FF Ativo 119 / 115 40% 1 20.10.2027 -
Sheriff Amuda Shooting Stars Ativo 88 / 94 40% 2 19.10.2027 -
Nazareno Roselli Defensa y Justicia Ativo 112 / 132 40% 2 19.10.2027 -
Azizbek To'lqinbekov Bunyodkor Ativo 97 / 105 40% 2 19.10.2027 -
Elias Hovdahl Sandrød Rosenborg Ativo 92 / 84 40% 4 18.10.2027 -
Bade Aluko Accrington Stanley Ativo 115 / 109 40% 1 18.10.2027 -
Agustín Medina Lanús Ativo 126 / 119 40% 3 17.10.2027 -
Jonathan Norbye Stabaek Ativo 109 / 117 40% 5 17.10.2027 -
Matías Canedo Rampla Juniors Ativo 85 / 94 40% 1 17.10.2027 -
Mateo Caballero Defensor Sporting Ativo 93 / 105 40% 2 15.10.2027 -
Juan Manuel Villalba Boca Juniors Ativo 121 / 120 40% 1 15.10.2027 -
Juan Camilo Córdoba Deportivo Pereira Ativo 86 / 77 40% 3 13.10.2027 -
Tobias Moi Bodo/Glimt Ativo 106 / 107 40% 2 12.10.2027 -
Onuorah Onyedika Kun Khalifat Ativo 81 / 84 40% 1 12.10.2027 -
Jaydee Canvot Liverpool Ativo 136 / 160 40% 1 09.10.2027 -
David Asayure Lokomotivi Ativo 75 / 69 40% 3 08.10.2027 -
Jofrank Istifanus Nasarawa United Ativo 81 / 100 40% 4 08.10.2027 -
Edvard Pettersen Sandefjord Ativo 113 / 111 40% 4 06.10.2027 -
Aiden Hezarkhani Real Salt Lake Ativo 86 / 117 40% 2 06.10.2027 -
Tiago Gordillo San Miguel Ativo 90 / 91 40% 1 03.10.2027 -
Dayann Methalie Everton Ativo 138 / 131 40% 1 26.09.2027 -
Chris Rigg Sunderland Ativo 135 / 130 40% 2 18.09.2027 -
Nahuel Leivas Montevideo City Torque Ativo 107 / 124 40% 1 07.09.2027 -
Jackson Imbiakha Muranga Seal Ativo 67 / 60 40% 1 06.09.2027 -
Nicola Zalewski Atalanta Ativo 153 / 163 40% 1 16.08.2027 -
Marcus Holmgren Pedersen Olympiacos Perdido 145 / 126 40% 1 16.08.2027 -
Odilon Kossounou Atalanta Ativo 158 / 140 40% 1 16.08.2027 -
Dale Taylor Blackpool Ativo 121 / 135 40% 5 02.08.2027 -
Giorgi Chakvetadze Watford Ativo 126 / 141 40% 1 02.08.2027 -
Nordi Mukiele Sunderland Ativo 144 / 137 40% 1 02.08.2027 -
Zeidane Inoussa Swansea City Ativo 128 / 110 40% 7 15.07.2027 -
Oladapo Afolayan Blackburn Rovers Ativo 136 / 142 40% 2 15.07.2027 -
Ross McCrorie Bristol City Ativo 134 / 139 40% 1 15.07.2027 -
Paddy Lane Reading Ativo 106 / 97 40% 1 14.07.2027 -
Edoardo Bove Watford Ativo 127 / 120 40% 1 14.07.2027 -
Callum O'Hare Sheffield United Ativo 139 / 121 40% 1 14.07.2027 -
Brooke Norton-Cuffy Hull City Ativo 145 / 142 40% 4 13.07.2027 -
Koki Saito Queens Park Rangers Ativo 136 / 135 40% 5 13.07.2027 -
Daniel Kyerewaa Reading Ativo 121 / 108 40% 4 12.07.2027 -
Welington Southampton Ativo 128 / 142 40% 7 12.07.2027 -
Max Conway Bolton Wanderers Ativo 115 / 138 40% 3 12.07.2027 -
Othmane Maamma Watford Ativo 129 / 125 40% 2 12.07.2027 -
Josh Edwards Charlton Athletic Ativo 126 / 123 40% 1 12.07.2027 -
Stuart Findlay Peterborough United Ativo 123 / 126 40% 1 12.07.2027 -
Karlan Grant West Bromwich Albion Ativo 121 / 109 40% 2 10.07.2027 -
Jovon Makama Norwich City Ativo 121 / 110 40% 2 10.07.2027 -
Lamine Cissé Peterborough United Ativo 117 / 117 40% 4 09.07.2027 -
Paris Maghoma Norwich City Ativo 130 / 126 40% 3 09.07.2027 -
Tyler Goodrham Oxford United Ativo 116 / 111 40% 1 09.07.2027 -
Jack McGlynn Stoke City Ativo 137 / 122 40% 3 07.07.2027 -
Harry Clarke Preston Ativo 136 / 130 40% 2 07.07.2027 -
Saša Lukić Ipswich Town Ativo 144 / 142 40% 2 07.07.2027 -
Charlie Webster Burton Albion Ativo 122 / 135 40% 1 07.07.2027 -
Joe Rankin-Costello Charlton Athletic Ativo 125 / 118 40% 1 07.07.2027 -
Jayden Nelson Bolton Wanderers Ativo 118 / 122 40% 2 06.07.2027 -
Fraser Murray Wigan Athletic Ativo 122 / 129 40% 10 05.07.2027 -
Isaiah Jones Luton Town Ativo 124 / 107 40% 4 05.07.2027 -
Finn Azaz Southampton Ativo 125 / 122 40% 6 03.07.2027 -
Shea Charles Southampton Ativo 139 / 148 40% 3 02.07.2027 -
Tommy Conway Middlesbrough Ativo 137 / 130 40% 2 02.07.2027 -
Callum Doyle Wrexham Ativo 130 / 124 40% 2 02.07.2027 -
Toby Collyer West Bromwich Albion Ativo 131 / 148 40% 1 02.07.2027 -
Justin Devenny Stoke City Ativo 125 / 129 40% 1 02.07.2027 -
Ramón Terrats Getafe Ativo 145 / 133 40% 3 30.06.2027 -
Sorba Thomas Stoke City Ativo 140 / 149 40% 4 30.06.2027 -
Tom Fellows Southampton Ativo 129 / 123 40% 2 30.06.2027 -
Tim Iroegbunam Hull City Ativo 148 / 128 40% 1 30.06.2027 -
Leo Østigård Genoa Ativo 145 / 124 40% 1 30.06.2027 -
Mikey Johnston West Bromwich Albion Ativo 120 / 129 40% 2 27.06.2027 -
Stephy Mavididi Leicester City Ativo 134 / 123 40% 2 27.06.2027 -
Ali Ahmed Norwich City Ativo 130 / 141 40% 4 27.06.2027 -
Mathias Jørgensen Blackburn Rovers Ativo 130 / 106 40% 6 26.06.2027 -
Marcus McGuane Huddersfield Town Ativo 119 / 112 40% 2 26.06.2027 -
Andre Brooks Sheffield United Ativo 132 / 129 40% 2 26.06.2027 -
Romano Schmid Frosinone Ativo 155 / 158 40% 3 24.06.2027 -
Aaron Collins Milton Keynes Dons Ativo 117 / 111 40% 3 23.06.2027 -
Mohamed-Ali Cho Hull City Ativo 130 / 154 40% 1 23.06.2027 -
Ilias Chair Queens Park Rangers Ativo 126 / 125 40% 4 22.06.2027 -
Ronald Swansea City Ativo 132 / 129 40% 4 21.06.2027 -
Aidomo Emakhu Oxford United Ativo 118 / 111 40% 3 21.06.2027 -
Dara O'Shea Ipswich Town Ativo 130 / 138 40% 2 20.06.2027 -
Victor Torp Coventry City Ativo 136 / 147 40% 2 20.06.2027 -
Florentino Luís Ipswich Town Ativo 139 / 147 40% 1 20.06.2027 -
Samuel Silvera Cambridge United Ativo 128 / 133 40% 1 16.06.2027 -
Myles Peart-Harris Oxford United Ativo 117 / 131 40% 1 16.06.2027 -
Mark Sykes Millwall Ativo 127 / 117 40% 3 15.06.2027 -
Demarai Gray Birmingham Ativo 133 / 128 40% 4 15.06.2027 -
Max Bird Birmingham Ativo 125 / 133 40% 4 14.06.2027 -
Mihailo Ivanović Millwall Ativo 132 / 123 40% 1 14.06.2027 -
Cian Ashford Cardiff City Ativo 127 / 110 40% 4 13.06.2027 -
Kasey McAteer Ipswich Town Ativo 129 / 125 40% 3 13.06.2027 -
Todd Cantwell Blackburn Rovers Ativo 140 / 117 40% 4 12.06.2027 -
Lewis O'Brien Wrexham Ativo 120 / 112 40% 2 11.06.2027 -
Tariq Lamptey Queens Park Rangers Ativo 141 / 135 40% 2 06.06.2027 -
Bosun Lawal Stoke City Ativo 122 / 122 40% 1 06.06.2027 -
Oliver Skipp Leicester City Ativo 129 / 149 40% 1 06.06.2027 -
Tyrese Campbell Sheffield United Ativo 128 / 126 40% 2 04.06.2027 -
Edvin Austbø West Ham United Ativo 122 / 133 40% 1 04.06.2027 -
Riley McGree Middlesbrough Ativo 140 / 136 40% 1 03.06.2027 -
Alex Robertson Cardiff City Ativo 132 / 112 40% 1 03.06.2027 -
Jay Stansfield Birmingham Ativo 136 / 111 40% 1 02.06.2027 -
Teden Mengi Luton Town Ativo 123 / 112 40% 1 02.06.2027 -
Ethan Galbraith Swansea City Ativo 129 / 142 40% 3 01.06.2027 -
Di'Shon Bernard Sheffield Wednesday Ativo 119 / 124 40% 1 01.06.2027 -
Jordan Beyer Burnley Ativo 138 / 128 40% 1 01.06.2027 -
Max Johnston Derby County Ativo 125 / 126 40% 4 30.05.2027 -
Kelly Saravanan Salford City Ativo 113 / 98 40% 1 30.05.2027 -
Tyrell Malacia Derby County Ativo 130 / 148 40% 3 29.05.2027 -
Gustavo Hamer Sheffield United Ativo 133 / 138 40% 1 29.05.2027 -
Guille Rosas Gijón Ativo 147 / 126 40% 1 29.05.2027 -
Ryoya Morishita Blackburn Rovers Ativo 129 / 123 40% 2 27.05.2027 -
Zian Flemming Ipswich Town Ativo 125 / 135 40% 3 25.05.2027 -
Isaac Price West Bromwich Albion Ativo 128 / 121 40% 2 24.05.2027 -
Joe Gelhardt Hull City Ativo 136 / 125 40% 3 23.05.2027 -
Alessio Zerbin Frosinone Ativo 130 / 139 40% 2 22.05.2027 -
Callum Brittain Middlesbrough Ativo 123 / 135 40% 1 22.05.2027 -
Habib Diarra Sunderland Ativo 142 / 140 40% 1 22.05.2027 -
Pelle Mattsson Norwich City Ativo 126 / 113 40% 1 22.05.2027 -
Louie Barry Sheffield Wednesday Ativo 128 / 110 40% 2 20.05.2027 -
Luke McNally Bristol City Ativo 138 / 116 40% 2 17.05.2027 -
Lee Buchanan Sheffield Wednesday Ativo 118 / 130 40% 1 17.05.2027 -
Melker Widell Swansea City Ativo 123 / 132 40% 1 15.05.2027 -
Jeon Jin-Woo Sheffield Wednesday Ativo 137 / 134 40% 2 11.05.2027 -
Dylan Levitt Leyton Orient Ativo 112 / 106 40% 1 09.05.2027 -
Tomáš Rigo Stoke City Ativo 126 / 117 40% 1 08.05.2027 -
Jason Knight Bristol City Ativo 125 / 111 40% 2 07.05.2027 -
Marc Bola Watford Ativo 122 / 136 40% 2 07.05.2027 -
Sindre Walle Egeli Nottingham Forest Ativo 133 / 116 40% 2 03.05.2027 Mais informações
Cameron Brannagan Oxford United Ativo 129 / 132 40% 1 03.05.2027 -
Rumarn Burrell Queens Park Rangers Ativo 126 / 132 40% 1 01.05.2027 -
Rubin Colwill Cardiff City Ativo 117 / 130 40% 1 29.04.2027 -
Ethan Pye Stockport County Ativo 114 / 121 40% 1 29.04.2027 -
Jack Diamond Stockport County Ativo 113 / 103 40% 1 27.04.2027 -
Anel Ahmedhodžić Burnley Ativo 142 / 149 40% 1 25.04.2027 -
Lloyd Jones Charlton Athletic Ativo 133 / 118 40% 1 20.04.2027 -
Dávid Strelec Middlesbrough Ativo 134 / 127 40% 1 18.04.2027 -
Julio Enciso Ipswich Town Ativo 153 / 131 40% 1 16.04.2027 -
Jack Rudoni Coventry City Ativo 128 / 134 40% 1 15.04.2027 -
Mduduzi Shabalala Kaizer Chiefs Ativo 107 / 109 40% 2 14.04.2027 -
Bobby Clark Derby County Ativo 120 / 107 40% 1 14.04.2027 -
Sory Diarra Haugesund Ativo 101 / 94 76% 1 08.03.2027 Aprovar
Armstrong Oko-Flex Levski Ativo 115 / 131 40% 5 01.02.2027 -
Ola Brynhildsen Bodo/Glimt Ativo 134 / 120 40% 5 29.01.2027 -
Thierry Rendall Correia Venezia Perdido 145 / 158 40% 1 28.01.2027 -
Camillo Tavernelli Arezzo Ativo 125 / 102 40% 1 27.01.2027 -
Ali Youssef Apollon Ativo 121 / 108 40% 1 27.01.2027 -
Giorgi Kvernadze Frosinone Ativo 115 / 133 40% 1 27.01.2027 -
Christian Krasnodar Ativo 130 / 129 40% 5 26.01.2027 -
Brian Figueroa Morelia Ativo 101 / 91 40% 2 25.01.2027 -
Camilo Durán Bloemfontein Celtic Ativo 126 / 125 40% 6 24.01.2027 -
Erik Botheim Viking Ativo 133 / 129 40% 8 20.01.2027 -
Léo Pereira CSKA Sofia Ativo 119 / 123 40% 4 19.01.2027 -
Lewis Ferguson Bologna Ativo 137 / 149 40% 1 18.01.2027 -
Raymond Agyemang Aduana Stars Ativo 79 / 89 40% 1 17.01.2027 -
Dennis Konney Berekum Chelsea Ativo 75 / 85 40% 1 17.01.2027 -
Simphiwe Selepe Orlando Pirates Ativo 116 / 115 40% 2 16.01.2027 -
Zoltan Bese Haladas Ativo 106 / 124 40% 1 16.01.2027 -
Thulani Phiri Platinum Stars Ativo 114 / 122 40% 2 14.01.2027 -
Konan N'Dri Lecce Ativo 138 / 140 40% 1 14.01.2027 -
Evangelos Patoulidis Sandefjord Ativo 118 / 115 40% 5 13.01.2027 -
Emil Breivik Molde Ativo 132 / 140 40% 3 13.01.2027 -
Petar Stanić Ludogorets Ativo 137 / 132 40% 4 12.01.2027 -
Ammar Ramadan DAC Dunajska Streda Ativo 127 / 124 40% 3 10.01.2027 -
Jofre Torrents Ajax Ativo 117 / 125 40% 2 10.01.2027 -
Edmund Nuhu BA All Stars Ativo 84 / 97 40% 1 10.01.2027 -
Simon Ramabu Polokwane City Ativo 99 / 118 40% 1 10.01.2027 -
Kirill Glebov CSKA Moscow Ativo 125 / 136 40% 1 09.01.2027 -
Martim Cunha Porto Ativo 109 / 106 40% 3 07.01.2027 -
Théo Hansen Hobro Ativo 95 / 87 40% 1 07.01.2027 -
Rubens Dinamo Moscow Ativo 130 / 139 40% 2 05.01.2027 -
Alexander Warneryd Tromso Ativo 107 / 120 40% 3 03.01.2027 -
Suleiman Camara Slovan Bratislava Ativo 128 / 131 40% 5 03.01.2027 -
Andrey Ivlev Nizhniy Novgorod Ativo 101 / 103 40% 2 03.01.2027 -
Samuel Lucero Defensa y Justicia Ativo 110 / 106 40% 1 03.01.2027 -
Simen Bolkan Nordli Rosenborg Ativo 120 / 126 40% 8 28.12.2026 -
Wandile Duba Maritzburg United Ativo 111 / 122 40% 1 28.12.2026 -
Morten Frendrup Genoa Ativo 132 / 129 40% 1 22.12.2026 -
Jakob Dunsby Sandefjord Ativo 120 / 123 40% 3 21.12.2026 -
Tshepang Moremi Orlando Pirates Ativo 113 / 92 40% 3 21.12.2026 -
T-Jay Parfitt Cardiff City Ativo 81 / 91 40% 3 21.12.2026 -
James Dornelly Peterborough United Ativo 92 / 87 40% 1 21.12.2026 -
Josef Baccay Odd Ativo 106 / 116 40% 3 19.12.2026 -
Sander Risan Mørk Sandefjord Ativo 120 / 106 40% 1 19.12.2026 -
João Simões Sporting CP Ativo 134 / 125 40% 1 17.12.2026 -
Elias Hoff Melkersen Stromsgodset Ativo 113 / 125 40% 4 14.12.2026 Observar
Jens Petter Hauge Bodo/Glimt Ativo 138 / 129 40% 3 12.12.2026 Observar
Markus Karlsbakk Haugesund Ativo 118 / 109 40% 2 11.12.2026 -
Reda Khadra Qarabag Ativo 138 / 109 40% 2 10.12.2026 -
Karsten Ekorness Stabaek Ativo 94 / 88 40% 1 10.12.2026 -
Dávid Ďuriš Rosenborg Ativo 113 / 134 40% 3 04.12.2026 -
Martins Júnior Zira Ativo 119 / 113 40% 1 04.12.2026 -
Aimar Sher Sarpsborg 08 Ativo 114 / 110 40% 4 03.12.2026 -
Martin Wober Mattersburg Ativo 87 / 100 40% 1 03.12.2026 -
Mohammed Wakaso Hasaacas Ativo 96 / 92 40% 1 29.11.2026 -
Eivind Helland Bologna Ativo 136 / 123 40% 1 25.11.2026 -
Reuell Walters Luton Town Ativo 106 / 136 40% 1 23.11.2026 -
Filip Loftesnes-Bjune Odd Ativo 97 / 107 40% 1 23.11.2026 -
Hugo Aviander GIF Sundsvall Ativo 90 / 106 40% 2 21.11.2026 -
Christos Mouzakitis Hull City Ativo 133 / 150 40% 1 21.11.2026 -
Thomas Atiemo Wa All Stars Ativo 89 / 99 40% 1 20.11.2026 -
Ronaldo Vásquez Sumgayit Ativo 127 / 119 40% 1 19.11.2026 -
Mathias Kjølø Rosenborg Ativo 125 / 114 40% 3 16.11.2026 -
Anders Bondhus Haugesund Ativo 85 / 102 40% 2 16.11.2026 -
Mauro Rodrigues Botev Plovdiv Ativo 115 / 103 40% 2 16.11.2026 -
Joe Bell Viking Ativo 120 / 124 40% 2 12.11.2026 -
Odin Bjørtuft Bodo/Glimt Ativo 135 / 135 40% 3 12.11.2026 -
Aljoša Matko Ujpest Ativo 123 / 107 40% 2 11.11.2026 -
Fredrik Kristensen Dahl Molde Ativo 119 / 119 40% 2 11.11.2026 -
Jonathan De Irastorza Levante Ativo 115 / 127 40% 1 11.11.2026 -
Lucas Jetten Cambuur Ativo 99 / 98 40% 1 11.11.2026 -
Markus Soomets IK Start Ativo 108 / 101 40% 1 07.11.2026 -
Filip Rønningen Jørgensen Odd Ativo 117 / 97 40% 1 07.11.2026 -
Matthias Seidl Rapid Wien Ativo 130 / 104 40% 4 01.11.2026 -
Gabriel Lekan Kun Khalifat Ativo 82 / 77 40% 1 01.11.2026 -
Halldor Stenevik Molde Ativo 119 / 131 40% 2 29.10.2026 -
Andreas Nibe Sarpsborg 08 Ativo 110 / 113 40% 1 28.10.2026 -
Jakob Vester Sandefjord Ativo 101 / 105 40% 2 26.10.2026 -
Adrian Pereira Rosenborg Ativo 118 / 116 40% 2 23.10.2026 -
João Muniz Sporting CP Ativo 121 / 115 40% 1 22.10.2026 -
Peter Reinhardsen Sarpsborg 08 Ativo 105 / 113 40% 3 18.10.2026 Observar
August Mikkelsen Bodo/Glimt Ativo 106 / 128 40% 2 14.10.2026 -
Aleksander Hammer Kjelsen Aalesund Ativo 105 / 102 40% 1 10.10.2026 -
Matías Gómez Valencia Ativo 117 / 136 40% 1 08.10.2026 -
Danil Glebov Dinamo Moscow Ativo 132 / 138 40% 1 05.10.2026 -
Fabian Kvam Cambuur Ativo 78 / 76 40% 1 30.09.2026 -
Caolan Boyd-Munce Wycombe Wanderers Ativo 129 / 101 40% 1 29.09.2026 -
David Edvardsson Tromso Ativo 121 / 132 40% 2 24.09.2026 -
Sander Christiansen Sarpsborg 08 Ativo 107 / 108 40% 1 23.09.2026 -
Kreshnik Krasniqi Stromsgodset Ativo 110 / 100 40% 1 21.09.2026 -
Kristoffer Askildsen Viking Ativo 111 / 109 40% 1 19.09.2026 -
Steve Mvoué IK Start Ativo 109 / 97 40% 1 18.09.2026 -
Leo Cornic Tromso Ativo 116 / 105 40% 1 17.09.2026 -
Claus Niyukuri Sarpsborg 08 Ativo 108 / 96 40% 1 17.09.2026 -
Gianni Stensness Viking Ativo 116 / 118 40% 1 16.09.2026 -
Mathias Grundetjern Stabaek Ativo 116 / 117 40% 2 14.09.2026 -
Mariano Bracamonte Deportivo Riestra Ativo 110 / 100 40% 1 14.09.2026 -
Fredrik Pedersen Sandefjord Ativo 113 / 105 40% 1 11.09.2026 -
Thulani Mphela Free State Stars Ativo 116 / 112 40% 1 11.09.2026 -
Kristian Eriksen Molde Ativo 131 / 115 40% 1 01.08.2026 -
Hugo Vetlesen Club Brugge Ativo 129 / 121 40% 1 01.08.2026 -